sensor_id;sensor_type;location;lat;lon;timestamp;temperature;humidity
64937;SHT30;51452;47.698;19.050;2024-01-30T00:00:32;2.27;73.03
64937;SHT30;51452;47.698;19.050;2024-01-30T00:02:57;2.33;73.20
64937;SHT30;51452;47.698;19.050;2024-01-30T00:05:23;2.35;72.83
64937;SHT30;51452;47.698;19.050;2024-01-30T00:07:48;2.34;73.18
64937;SHT30;51452;47.698;19.050;2024-01-30T00:10:13;2.34;72.91
64937;SHT30;51452;47.698;19.050;2024-01-30T00:12:39;2.35;72.65
64937;SHT30;51452;47.698;19.050;2024-01-30T00:15:04;2.34;72.20
64937;SHT30;51452;47.698;19.050;2024-01-30T00:17:33;2.30;72.81
64937;SHT30;51452;47.698;19.050;2024-01-30T00:19:58;2.33;72.49
64937;SHT30;51452;47.698;19.050;2024-01-30T00:22:27;2.28;72.62
64937;SHT30;51452;47.698;19.050;2024-01-30T00:24:55;2.28;72.67
64937;SHT30;51452;47.698;19.050;2024-01-30T00:27:20;2.24;72.64
64937;SHT30;51452;47.698;19.050;2024-01-30T00:29:46;2.30;72.76
64937;SHT30;51452;47.698;19.050;2024-01-30T00:32:11;2.33;72.09
64937;SHT30;51452;47.698;19.050;2024-01-30T00:34:36;2.28;71.10
64937;SHT30;51452;47.698;19.050;2024-01-30T00:37:02;2.10;72.20
64937;SHT30;51452;47.698;19.050;2024-01-30T00:39:27;1.93;73.06
64937;SHT30;51452;47.698;19.050;2024-01-30T00:41:53;1.72;74.61
64937;SHT30;51452;47.698;19.050;2024-01-30T00:44:18;1.70;75.14
64937;SHT30;51452;47.698;19.050;2024-01-30T00:46:44;1.90;73.88
64937;SHT30;51452;47.698;19.050;2024-01-30T00:49:10;2.06;73.23
64937;SHT30;51452;47.698;19.050;2024-01-30T00:51:35;2.11;71.90
64937;SHT30;51452;47.698;19.050;2024-01-30T00:54:01;2.14;72.41
64937;SHT30;51452;47.698;19.050;2024-01-30T00:56:28;2.13;72.75
64937;SHT30;51452;47.698;19.050;2024-01-30T00:58:53;2.14;72.99
64937;SHT30;51452;47.698;19.050;2024-01-30T01:01:19;2.14;71.95
64937;SHT30;51452;47.698;19.050;2024-01-30T01:03:44;1.99;72.80
64937;SHT30;51452;47.698;19.050;2024-01-30T01:06:10;2.10;72.57
64937;SHT30;51452;47.698;19.050;2024-01-30T01:08:36;2.13;72.40
64937;SHT30;51452;47.698;19.050;2024-01-30T01:11:01;2.06;72.17
64937;SHT30;51452;47.698;19.050;2024-01-30T01:13:28;2.11;72.77
64937;SHT30;51452;47.698;19.050;2024-01-30T01:15:53;2.07;73.39
64937;SHT30;51452;47.698;19.050;2024-01-30T01:18:19;2.11;72.35
64937;SHT30;51452;47.698;19.050;2024-01-30T01:20:44;2.10;72.31
64937;SHT30;51452;47.698;19.050;2024-01-30T01:23:09;2.17;72.27
64937;SHT30;51452;47.698;19.050;2024-01-30T01:25:35;2.07;72.65
64937;SHT30;51452;47.698;19.050;2024-01-30T01:28:00;2.10;72.71
64937;SHT30;51452;47.698;19.050;2024-01-30T01:30:26;2.00;73.24
64937;SHT30;51452;47.698;19.050;2024-01-30T01:32:53;1.99;72.47
64937;SHT30;51452;47.698;19.050;2024-01-30T01:35:23;2.04;72.45
64937;SHT30;51452;47.698;19.050;2024-01-30T01:37:50;2.00;72.40
64937;SHT30;51452;47.698;19.050;2024-01-30T01:40:23;2.02;72.20
64937;SHT30;51452;47.698;19.050;2024-01-30T01:42:53;1.90;73.31
64937;SHT30;51452;47.698;19.050;2024-01-30T01:45:19;1.95;72.49
64937;SHT30;51452;47.698;19.050;2024-01-30T01:47:52;1.96;72.54
64937;SHT30;51452;47.698;19.050;2024-01-30T01:50:19;1.93;72.69
64937;SHT30;51452;47.698;19.050;2024-01-30T01:52:49;1.92;73.20
64937;SHT30;51452;47.698;19.050;2024-01-30T01:55:15;1.93;72.92
64937;SHT30;51452;47.698;19.050;2024-01-30T01:57:47;2.00;72.39
64937;SHT30;51452;47.698;19.050;2024-01-30T02:00:13;2.03;71.80
64937;SHT30;51452;47.698;19.050;2024-01-30T02:02:39;2.06;72.05
64937;SHT30;51452;47.698;19.050;2024-01-30T02:05:05;1.86;72.60
64937;SHT30;51452;47.698;19.050;2024-01-30T02:07:31;1.87;72.82
64937;SHT30;51452;47.698;19.050;2024-01-30T02:09:56;1.96;72.66
64937;SHT30;51452;47.698;19.050;2024-01-30T02:12:21;1.95;73.11
64937;SHT30;51452;47.698;19.050;2024-01-30T02:14:47;1.89;73.19
64937;SHT30;51452;47.698;19.050;2024-01-30T02:17:13;1.93;73.26
64937;SHT30;51452;47.698;19.050;2024-01-30T02:19:39;1.89;73.56
64937;SHT30;51452;47.698;19.050;2024-01-30T02:22:05;1.99;72.88
64937;SHT30;51452;47.698;19.050;2024-01-30T02:24:31;2.03;72.34
64937;SHT30;51452;47.698;19.050;2024-01-30T02:26:56;1.92;73.14
64937;SHT30;51452;47.698;19.050;2024-01-30T02:29:21;1.96;73.07
64937;SHT30;51452;47.698;19.050;2024-01-30T02:31:47;1.97;72.27
64937;SHT30;51452;47.698;19.050;2024-01-30T02:34:13;1.96;71.87
64937;SHT30;51452;47.698;19.050;2024-01-30T02:36:38;1.90;72.03
64937;SHT30;51452;47.698;19.050;2024-01-30T02:39:07;1.92;72.13
64937;SHT30;51452;47.698;19.050;2024-01-30T02:41:33;1.83;73.02
64937;SHT30;51452;47.698;19.050;2024-01-30T02:43:59;1.92;73.24
64937;SHT30;51452;47.698;19.050;2024-01-30T02:46:24;1.92;72.17
64937;SHT30;51452;47.698;19.050;2024-01-30T02:48:49;1.87;72.33
64937;SHT30;51452;47.698;19.050;2024-01-30T02:51:15;1.82;72.80
64937;SHT30;51452;47.698;19.050;2024-01-30T02:53:40;1.80;72.65
64937;SHT30;51452;47.698;19.050;2024-01-30T02:56:05;1.83;72.70
64937;SHT30;51452;47.698;19.050;2024-01-30T02:58:34;1.82;73.35
64937;SHT30;51452;47.698;19.050;2024-01-30T03:01:00;1.82;73.27
64937;SHT30;51452;47.698;19.050;2024-01-30T03:03:25;1.87;72.74
64937;SHT30;51452;47.698;19.050;2024-01-30T03:05:51;1.89;72.63
64937;SHT30;51452;47.698;19.050;2024-01-30T03:08:16;1.80;72.63
64937;SHT30;51452;47.698;19.050;2024-01-30T03:10:41;1.79;72.46
64937;SHT30;51452;47.698;19.050;2024-01-30T03:13:07;1.66;73.05
64937;SHT30;51452;47.698;19.050;2024-01-30T03:15:32;1.75;72.68
64937;SHT30;51452;47.698;19.050;2024-01-30T03:17:58;1.76;72.27
64937;SHT30;51452;47.698;19.050;2024-01-30T03:20:23;1.69;73.25
64937;SHT30;51452;47.698;19.050;2024-01-30T03:22:49;1.69;72.97
64937;SHT30;51452;47.698;19.050;2024-01-30T03:25:14;1.67;72.07
64937;SHT30;51452;47.698;19.050;2024-01-30T03:27:40;1.65;72.71
64937;SHT30;51452;47.698;19.050;2024-01-30T03:30:06;1.62;72.85
64937;SHT30;51452;47.698;19.050;2024-01-30T03:32:31;1.58;72.87
64937;SHT30;51452;47.698;19.050;2024-01-30T03:34:56;1.59;72.58
64937;SHT30;51452;47.698;19.050;2024-01-30T03:37:23;1.66;72.28
64937;SHT30;51452;47.698;19.050;2024-01-30T03:39:49;1.56;71.59
64937;SHT30;51452;47.698;19.050;2024-01-30T03:42:14;1.54;72.47
64937;SHT30;51452;47.698;19.050;2024-01-30T03:44:39;1.60;72.23
64937;SHT30;51452;47.698;19.050;2024-01-30T03:47:05;1.56;72.80
64937;SHT30;51452;47.698;19.050;2024-01-30T03:49:31;1.60;72.89
64937;SHT30;51452;47.698;19.050;2024-01-30T03:51:56;1.54;72.53
64937;SHT30;51452;47.698;19.050;2024-01-30T03:54:21;1.55;72.30
64937;SHT30;51452;47.698;19.050;2024-01-30T03:56:47;1.49;72.80
64937;SHT30;51452;47.698;19.050;2024-01-30T03:59:12;1.36;73.67
64937;SHT30;51452;47.698;19.050;2024-01-30T04:01:38;1.38;73.70
64937;SHT30;51452;47.698;19.050;2024-01-30T04:04:03;1.45;73.89
64937;SHT30;51452;47.698;19.050;2024-01-30T04:06:29;1.48;73.61
64937;SHT30;51452;47.698;19.050;2024-01-30T04:08:54;1.44;73.94
64937;SHT30;51452;47.698;19.050;2024-01-30T04:11:19;1.42;73.76
64937;SHT30;51452;47.698;19.050;2024-01-30T04:13:45;1.38;73.88
64937;SHT30;51452;47.698;19.050;2024-01-30T04:16:22;1.44;73.94
64937;SHT30;51452;47.698;19.050;2024-01-30T04:18:48;1.45;74.12
64937;SHT30;51452;47.698;19.050;2024-01-30T04:21:13;1.49;73.43
64937;SHT30;51452;47.698;19.050;2024-01-30T04:23:40;1.49;72.98
64937;SHT30;51452;47.698;19.050;2024-01-30T04:26:05;1.39;74.09
64937;SHT30;51452;47.698;19.050;2024-01-30T04:28:31;1.42;73.97
64937;SHT30;51452;47.698;19.050;2024-01-30T04:30:56;1.49;73.98
64937;SHT30;51452;47.698;19.050;2024-01-30T04:33:22;1.51;74.06
64937;SHT30;51452;47.698;19.050;2024-01-30T04:35:47;1.45;73.82
64937;SHT30;51452;47.698;19.050;2024-01-30T04:38:13;1.49;73.66
64937;SHT30;51452;47.698;19.050;2024-01-30T04:40:40;1.45;73.67
64937;SHT30;51452;47.698;19.050;2024-01-30T04:43:05;1.42;73.83
64937;SHT30;51452;47.698;19.050;2024-01-30T04:45:30;1.41;73.39
64937;SHT30;51452;47.698;19.050;2024-01-30T04:47:56;1.48;73.45
64937;SHT30;51452;47.698;19.050;2024-01-30T04:50:21;1.35;73.90
64937;SHT30;51452;47.698;19.050;2024-01-30T04:52:46;1.34;73.84
64937;SHT30;51452;47.698;19.050;2024-01-30T04:55:12;1.36;74.58
64937;SHT30;51452;47.698;19.050;2024-01-30T04:57:37;1.38;74.69
64937;SHT30;51452;47.698;19.050;2024-01-30T05:00:03;1.35;74.85
64937;SHT30;51452;47.698;19.050;2024-01-30T05:02:28;1.28;74.87
64937;SHT30;51452;47.698;19.050;2024-01-30T05:04:54;1.31;75.10
64937;SHT30;51452;47.698;19.050;2024-01-30T05:07:20;1.36;75.05
64937;SHT30;51452;47.698;19.050;2024-01-30T05:09:45;1.39;74.89
64937;SHT30;51452;47.698;19.050;2024-01-30T05:12:10;1.34;75.03
64937;SHT30;51452;47.698;19.050;2024-01-30T05:14:36;1.31;75.30
64937;SHT30;51452;47.698;19.050;2024-01-30T05:17:01;1.35;75.37
64937;SHT30;51452;47.698;19.050;2024-01-30T05:19:28;1.35;74.84
64937;SHT30;51452;47.698;19.050;2024-01-30T05:21:53;1.41;74.38
64937;SHT30;51452;47.698;19.050;2024-01-30T05:24:19;1.30;73.98
64937;SHT30;51452;47.698;19.050;2024-01-30T05:26:44;1.30;74.00
64937;SHT30;51452;47.698;19.050;2024-01-30T05:29:10;1.34;74.83
64937;SHT30;51452;47.698;19.050;2024-01-30T05:31:35;1.34;74.97
64937;SHT30;51452;47.698;19.050;2024-01-30T05:34:01;1.32;75.20
64937;SHT30;51452;47.698;19.050;2024-01-30T05:36:26;1.32;74.93
64937;SHT30;51452;47.698;19.050;2024-01-30T05:38:52;1.27;72.28
64937;SHT30;51452;47.698;19.050;2024-01-30T05:41:18;1.15;74.35
64937;SHT30;51452;47.698;19.050;2024-01-30T05:43:43;1.18;74.81
64937;SHT30;51452;47.698;19.050;2024-01-30T05:46:09;1.23;75.00
64937;SHT30;51452;47.698;19.050;2024-01-30T05:48:34;1.30;75.44
64937;SHT30;51452;47.698;19.050;2024-01-30T05:51:00;1.31;75.18
64937;SHT30;51452;47.698;19.050;2024-01-30T05:53:26;1.31;74.38
64937;SHT30;51452;47.698;19.050;2024-01-30T05:55:52;1.27;74.44
64937;SHT30;51452;47.698;19.050;2024-01-30T05:58:20;1.30;74.65
64937;SHT30;51452;47.698;19.050;2024-01-30T06:00:46;1.32;74.61
64937;SHT30;51452;47.698;19.050;2024-01-30T06:03:12;1.24;74.68
64937;SHT30;51452;47.698;19.050;2024-01-30T06:05:37;1.23;74.78
64937;SHT30;51452;47.698;19.050;2024-01-30T06:08:02;1.25;74.34
64937;SHT30;51452;47.698;19.050;2024-01-30T06:10:28;1.30;74.62
64937;SHT30;51452;47.698;19.050;2024-01-30T06:12:53;1.28;74.32
64937;SHT30;51452;47.698;19.050;2024-01-30T06:15:19;1.21;74.39
64937;SHT30;51452;47.698;19.050;2024-01-30T06:17:44;1.23;74.20
64937;SHT30;51452;47.698;19.050;2024-01-30T06:20:10;1.32;73.66
64937;SHT30;51452;47.698;19.050;2024-01-30T06:22:35;1.35;73.33
64937;SHT30;51452;47.698;19.050;2024-01-30T06:25:01;1.32;73.41
64937;SHT30;51452;47.698;19.050;2024-01-30T06:27:26;1.35;73.39
64937;SHT30;51452;47.698;19.050;2024-01-30T06:29:52;1.31;73.55
64937;SHT30;51452;47.698;19.050;2024-01-30T06:32:17;1.30;73.51
64937;SHT30;51452;47.698;19.050;2024-01-30T06:34:43;1.32;73.45
64937;SHT30;51452;47.698;19.050;2024-01-30T06:37:09;1.31;73.60
64937;SHT30;51452;47.698;19.050;2024-01-30T06:39:35;1.35;74.03
64937;SHT30;51452;47.698;19.050;2024-01-30T06:42:09;1.38;73.46
64937;SHT30;51452;47.698;19.050;2024-01-30T06:44:34;1.44;72.91
64937;SHT30;51452;47.698;19.050;2024-01-30T06:47:00;1.44;73.07
64937;SHT30;51452;47.698;19.050;2024-01-30T06:49:25;1.45;72.93
64937;SHT30;51452;47.698;19.050;2024-01-30T06:51:52;1.49;72.92
64937;SHT30;51452;47.698;19.050;2024-01-30T06:54:17;1.54;72.45
64937;SHT30;51452;47.698;19.050;2024-01-30T06:56:43;1.52;72.47
64937;SHT30;51452;47.698;19.050;2024-01-30T06:59:08;1.48;72.66
64937;SHT30;51452;47.698;19.050;2024-01-30T07:01:33;1.55;72.83
64937;SHT30;51452;47.698;19.050;2024-01-30T07:03:59;1.55;72.40
64937;SHT30;51452;47.698;19.050;2024-01-30T07:06:24;1.65;72.86
64937;SHT30;51452;47.698;19.050;2024-01-30T07:08:50;1.67;72.50
64937;SHT30;51452;47.698;19.050;2024-01-30T07:11:19;1.59;72.39
64937;SHT30;51452;47.698;19.050;2024-01-30T07:13:46;1.63;72.42
64937;SHT30;51452;47.698;19.050;2024-01-30T07:16:12;1.73;73.06
64937;SHT30;51452;47.698;19.050;2024-01-30T07:18:38;1.70;72.74
64937;SHT30;51452;47.698;19.050;2024-01-30T07:21:03;1.79;72.86
64937;SHT30;51452;47.698;19.050;2024-01-30T07:23:29;1.89;72.95
64937;SHT30;51452;47.698;19.050;2024-01-30T07:25:55;1.89;72.95
64937;SHT30;51452;47.698;19.050;2024-01-30T07:28:20;1.93;73.31
64937;SHT30;51452;47.698;19.050;2024-01-30T07:30:46;1.95;73.18
64937;SHT30;51452;47.698;19.050;2024-01-30T07:33:12;2.03;73.21
64937;SHT30;51452;47.698;19.050;2024-01-30T07:35:38;2.06;73.67
64937;SHT30;51452;47.698;19.050;2024-01-30T07:38:03;2.17;73.37
64937;SHT30;51452;47.698;19.050;2024-01-30T07:40:29;2.26;73.46
64937;SHT30;51452;47.698;19.050;2024-01-30T07:42:55;2.26;73.37
64937;SHT30;51452;47.698;19.050;2024-01-30T07:45:21;2.30;73.36
64937;SHT30;51452;47.698;19.050;2024-01-30T07:47:51;2.31;73.04
64937;SHT30;51452;47.698;19.050;2024-01-30T07:50:17;2.37;73.64
64937;SHT30;51452;47.698;19.050;2024-01-30T07:52:43;2.42;74.68
64937;SHT30;51452;47.698;19.050;2024-01-30T07:55:09;2.51;73.88
64937;SHT30;51452;47.698;19.050;2024-01-30T07:57:34;2.54;73.24
64937;SHT30;51452;47.698;19.050;2024-01-30T08:00:00;2.59;73.23
64937;SHT30;51452;47.698;19.050;2024-01-30T08:02:26;2.62;73.65
64937;SHT30;51452;47.698;19.050;2024-01-30T08:04:51;2.68;73.43
64937;SHT30;51452;47.698;19.050;2024-01-30T08:07:16;2.75;73.22
64937;SHT30;51452;47.698;19.050;2024-01-30T08:09:43;2.81;73.51
64937;SHT30;51452;47.698;19.050;2024-01-30T08:12:08;2.86;73.19
64937;SHT30;51452;47.698;19.050;2024-01-30T08:14:34;2.91;73.43
64937;SHT30;51452;47.698;19.050;2024-01-30T08:16:59;2.97;72.89
64937;SHT30;51452;47.698;19.050;2024-01-30T08:19:28;3.02;72.92
64937;SHT30;51452;47.698;19.050;2024-01-30T08:21:53;3.02;73.02
64937;SHT30;51452;47.698;19.050;2024-01-30T08:24:18;3.10;72.97
64937;SHT30;51452;47.698;19.050;2024-01-30T08:26:47;3.16;73.08
64937;SHT30;51452;47.698;19.050;2024-01-30T08:29:12;3.19;73.30
64937;SHT30;51452;47.698;19.050;2024-01-30T08:31:37;3.20;72.88
64937;SHT30;51452;47.698;19.050;2024-01-30T08:34:03;3.20;73.21
64937;SHT30;51452;47.698;19.050;2024-01-30T08:36:28;3.20;73.31
64937;SHT30;51452;47.698;19.050;2024-01-30T08:38:53;3.27;73.55
64937;SHT30;51452;47.698;19.050;2024-01-30T08:41:19;3.27;73.95
64937;SHT30;51452;47.698;19.050;2024-01-30T08:43:44;3.24;73.79
64937;SHT30;51452;47.698;19.050;2024-01-30T08:46:10;3.31;73.84
64937;SHT30;51452;47.698;19.050;2024-01-30T08:48:36;3.47;73.44
64937;SHT30;51452;47.698;19.050;2024-01-30T08:51:01;3.57;73.21
64937;SHT30;51452;47.698;19.050;2024-01-30T08:53:27;3.71;72.78
64937;SHT30;51452;47.698;19.050;2024-01-30T08:55:52;3.73;72.39
64937;SHT30;51452;47.698;19.050;2024-01-30T08:58:18;3.73;72.26
64937;SHT30;51452;47.698;19.050;2024-01-30T09:00:44;3.77;72.29
64937;SHT30;51452;47.698;19.050;2024-01-30T09:03:10;3.75;71.90
64937;SHT30;51452;47.698;19.050;2024-01-30T09:05:35;3.77;72.23
64937;SHT30;51452;47.698;19.050;2024-01-30T09:08:01;3.75;72.34
64937;SHT30;51452;47.698;19.050;2024-01-30T09:10:26;3.74;72.60
64937;SHT30;51452;47.698;19.050;2024-01-30T09:12:52;3.78;72.50
64937;SHT30;51452;47.698;19.050;2024-01-30T09:15:17;3.73;72.61
64937;SHT30;51452;47.698;19.050;2024-01-30T09:17:44;3.74;72.60
64937;SHT30;51452;47.698;19.050;2024-01-30T09:20:12;3.82;72.48
64937;SHT30;51452;47.698;19.050;2024-01-30T09:22:38;3.89;72.23
64937;SHT30;51452;47.698;19.050;2024-01-30T09:25:04;3.88;71.84
64937;SHT30;51452;47.698;19.050;2024-01-30T09:27:30;3.84;72.04
64937;SHT30;51452;47.698;19.050;2024-01-30T09:29:56;3.92;72.24
64937;SHT30;51452;47.698;19.050;2024-01-30T09:32:21;3.95;72.00
64937;SHT30;51452;47.698;19.050;2024-01-30T09:34:47;3.88;72.07
64937;SHT30;51452;47.698;19.050;2024-01-30T09:37:12;3.98;71.65
64937;SHT30;51452;47.698;19.050;2024-01-30T09:39:40;3.91;71.71
64937;SHT30;51452;47.698;19.050;2024-01-30T09:42:12;3.91;71.91
64937;SHT30;51452;47.698;19.050;2024-01-30T09:44:41;3.91;71.99
64937;SHT30;51452;47.698;19.050;2024-01-30T09:47:08;4.05;72.17
64937;SHT30;51452;47.698;19.050;2024-01-30T09:49:37;4.01;71.91
64937;SHT30;51452;47.698;19.050;2024-01-30T09:52:05;4.10;71.61
64937;SHT30;51452;47.698;19.050;2024-01-30T09:54:31;4.15;71.60
64937;SHT30;51452;47.698;19.050;2024-01-30T09:56:57;4.10;71.52
64937;SHT30;51452;47.698;19.050;2024-01-30T09:59:23;4.08;71.37
64937;SHT30;51452;47.698;19.050;2024-01-30T10:01:50;4.16;71.80
64937;SHT30;51452;47.698;19.050;2024-01-30T10:04:15;4.13;71.68
64937;SHT30;51452;47.698;19.050;2024-01-30T10:06:41;4.18;72.21
64937;SHT30;51452;47.698;19.050;2024-01-30T10:09:07;4.18;71.71
64937;SHT30;51452;47.698;19.050;2024-01-30T10:11:33;4.16;71.44
64937;SHT30;51452;47.698;19.050;2024-01-30T10:14:00;4.02;71.98
64937;SHT30;51452;47.698;19.050;2024-01-30T10:16:25;4.13;72.49
64937;SHT30;51452;47.698;19.050;2024-01-30T10:18:51;4.23;72.29
64937;SHT30;51452;47.698;19.050;2024-01-30T10:21:16;4.28;71.78
64937;SHT30;51452;47.698;19.050;2024-01-30T10:23:43;4.32;71.89
64937;SHT30;51452;47.698;19.050;2024-01-30T10:26:11;4.43;71.83
64937;SHT30;51452;47.698;19.050;2024-01-30T10:28:37;4.56;71.47
64937;SHT30;51452;47.698;19.050;2024-01-30T10:31:03;4.52;70.83
64937;SHT30;51452;47.698;19.050;2024-01-30T10:33:31;4.52;70.71
64937;SHT30;51452;47.698;19.050;2024-01-30T10:36:04;4.67;70.92
64937;SHT30;51452;47.698;19.050;2024-01-30T10:38:30;4.70;71.00
64937;SHT30;51452;47.698;19.050;2024-01-30T10:41:00;4.66;71.23
64937;SHT30;51452;47.698;19.050;2024-01-30T10:43:35;4.67;70.94
64937;SHT30;51452;47.698;19.050;2024-01-30T10:46:19;4.76;71.26
64937;SHT30;51452;47.698;19.050;2024-01-30T10:48:51;4.80;71.30
64937;SHT30;51452;47.698;19.050;2024-01-30T10:51:22;4.94;72.04
64937;SHT30;51452;47.698;19.050;2024-01-30T10:53:49;5.00;71.56
64937;SHT30;51452;47.698;19.050;2024-01-30T10:56:16;5.11;71.27
64937;SHT30;51452;47.698;19.050;2024-01-30T10:58:41;5.25;70.52
64937;SHT30;51452;47.698;19.050;2024-01-30T11:01:07;5.24;70.51
64937;SHT30;51452;47.698;19.050;2024-01-30T11:03:34;5.32;70.68
64937;SHT30;51452;47.698;19.050;2024-01-30T11:06:02;5.18;70.82
64937;SHT30;51452;47.698;19.050;2024-01-30T11:08:27;5.14;71.20
64937;SHT30;51452;47.698;19.050;2024-01-30T11:10:57;5.21;70.73
64937;SHT30;51452;47.698;19.050;2024-01-30T11:13:29;5.24;70.57
64937;SHT30;51452;47.698;19.050;2024-01-30T11:15:56;5.24;70.60
64937;SHT30;51452;47.698;19.050;2024-01-30T11:18:25;5.27;70.84
64937;SHT30;51452;47.698;19.050;2024-01-30T11:20:51;5.28;70.15
64937;SHT30;51452;47.698;19.050;2024-01-30T11:23:16;5.27;70.04
64937;SHT30;51452;47.698;19.050;2024-01-30T11:25:43;5.32;69.62
64937;SHT30;51452;47.698;19.050;2024-01-30T11:28:14;5.32;70.55
64937;SHT30;51452;47.698;19.050;2024-01-30T11:30:40;5.24;70.02
64937;SHT30;51452;47.698;19.050;2024-01-30T11:33:12;5.21;69.78
64937;SHT30;51452;47.698;19.050;2024-01-30T11:35:42;5.21;69.44
64937;SHT30;51452;47.698;19.050;2024-01-30T11:38:14;5.27;69.65
64937;SHT30;51452;47.698;19.050;2024-01-30T11:40:40;5.32;69.88
64937;SHT30;51452;47.698;19.050;2024-01-30T11:43:07;5.29;69.54
64937;SHT30;51452;47.698;19.050;2024-01-30T11:45:34;5.36;69.11
64937;SHT30;51452;47.698;19.050;2024-01-30T11:48:00;5.31;69.65
64937;SHT30;51452;47.698;19.050;2024-01-30T11:50:32;5.32;70.00
64937;SHT30;51452;47.698;19.050;2024-01-30T11:52:59;5.38;69.40
64937;SHT30;51452;47.698;19.050;2024-01-30T11:55:26;5.32;69.25
64937;SHT30;51452;47.698;19.050;2024-01-30T11:57:55;5.38;69.45
64937;SHT30;51452;47.698;19.050;2024-01-30T12:00:21;5.42;69.41
64937;SHT30;51452;47.698;19.050;2024-01-30T12:02:51;5.34;69.26
64937;SHT30;51452;47.698;19.050;2024-01-30T12:05:20;5.48;68.19
64937;SHT30;51452;47.698;19.050;2024-01-30T12:07:46;5.62;68.70
64937;SHT30;51452;47.698;19.050;2024-01-30T12:10:15;5.58;67.95
64937;SHT30;51452;47.698;19.050;2024-01-30T12:12:46;5.55;68.21
64937;SHT30;51452;47.698;19.050;2024-01-30T12:15:13;5.55;67.98
64937;SHT30;51452;47.698;19.050;2024-01-30T12:17:38;5.70;67.80
64937;SHT30;51452;47.698;19.050;2024-01-30T12:22:40;5.60;67.78
64937;SHT30;51452;47.698;19.050;2024-01-30T12:25:10;5.59;67.59
64937;SHT30;51452;47.698;19.050;2024-01-30T12:27:43;5.62;67.61
64937;SHT30;51452;47.698;19.050;2024-01-30T12:30:11;5.71;67.17
64937;SHT30;51452;47.698;19.050;2024-01-30T12:32:40;5.66;67.20
64937;SHT30;51452;47.698;19.050;2024-01-30T12:35:10;5.73;66.93
64937;SHT30;51452;47.698;19.050;2024-01-30T12:37:37;5.69;67.94
64937;SHT30;51452;47.698;19.050;2024-01-30T12:40:03;5.77;67.81
64937;SHT30;51452;47.698;19.050;2024-01-30T12:42:29;5.77;67.20
64937;SHT30;51452;47.698;19.050;2024-01-30T12:44:54;5.73;66.36
64937;SHT30;51452;47.698;19.050;2024-01-30T12:47:22;5.74;66.44
64937;SHT30;51452;47.698;19.050;2024-01-30T12:49:48;5.71;66.27
64937;SHT30;51452;47.698;19.050;2024-01-30T12:52:16;5.70;66.64
64937;SHT30;51452;47.698;19.050;2024-01-30T12:54:41;5.80;66.34
64937;SHT30;51452;47.698;19.050;2024-01-30T12:57:07;5.87;65.89
64937;SHT30;51452;47.698;19.050;2024-01-30T12:59:32;5.81;65.86
64937;SHT30;51452;47.698;19.050;2024-01-30T13:02:03;5.89;66.42
64937;SHT30;51452;47.698;19.050;2024-01-30T13:04:29;5.89;66.14
64937;SHT30;51452;47.698;19.050;2024-01-30T13:06:55;5.90;65.27
64937;SHT30;51452;47.698;19.050;2024-01-30T13:09:20;5.85;63.65
64937;SHT30;51452;47.698;19.050;2024-01-30T13:11:46;5.93;63.53
64937;SHT30;51452;47.698;19.050;2024-01-30T13:14:11;5.85;63.74
64937;SHT30;51452;47.698;19.050;2024-01-30T13:16:36;5.93;63.62
64937;SHT30;51452;47.698;19.050;2024-01-30T13:19:02;6.00;64.11
64937;SHT30;51452;47.698;19.050;2024-01-30T13:21:28;6.03;63.30
64937;SHT30;51452;47.698;19.050;2024-01-30T13:23:54;5.99;63.35
64937;SHT30;51452;47.698;19.050;2024-01-30T13:26:22;6.03;63.20
64937;SHT30;51452;47.698;19.050;2024-01-30T13:28:48;6.09;62.94
64937;SHT30;51452;47.698;19.050;2024-01-30T13:31:16;6.04;62.91
64937;SHT30;51452;47.698;19.050;2024-01-30T13:33:42;6.09;62.93
64937;SHT30;51452;47.698;19.050;2024-01-30T13:36:11;6.13;62.60
64937;SHT30;51452;47.698;19.050;2024-01-30T13:38:38;6.11;62.39
64937;SHT30;51452;47.698;19.050;2024-01-30T13:41:09;6.20;62.53
64937;SHT30;51452;47.698;19.050;2024-01-30T13:43:34;6.20;62.66
64937;SHT30;51452;47.698;19.050;2024-01-30T13:46:00;6.13;62.87
64937;SHT30;51452;47.698;19.050;2024-01-30T13:48:25;6.07;63.22
64937;SHT30;51452;47.698;19.050;2024-01-30T13:50:50;6.10;63.14
64937;SHT30;51452;47.698;19.050;2024-01-30T13:53:16;6.11;63.18
64937;SHT30;51452;47.698;19.050;2024-01-30T13:55:41;6.11;63.72
64937;SHT30;51452;47.698;19.050;2024-01-30T13:58:07;6.07;63.14
64937;SHT30;51452;47.698;19.050;2024-01-30T14:00:33;6.14;63.38
64937;SHT30;51452;47.698;19.050;2024-01-30T14:02:58;6.17;63.21
64937;SHT30;51452;47.698;19.050;2024-01-30T14:05:24;6.14;63.36
64937;SHT30;51452;47.698;19.050;2024-01-30T14:07:51;6.14;63.19
64937;SHT30;51452;47.698;19.050;2024-01-30T14:10:17;6.22;62.87
64937;SHT30;51452;47.698;19.050;2024-01-30T14:12:43;6.17;62.60
64937;SHT30;51452;47.698;19.050;2024-01-30T14:15:10;6.18;62.26
64937;SHT30;51452;47.698;19.050;2024-01-30T14:17:36;6.18;62.00
64937;SHT30;51452;47.698;19.050;2024-01-30T14:20:05;6.10;62.52
64937;SHT30;51452;47.698;19.050;2024-01-30T14:22:32;6.18;62.93
64937;SHT30;51452;47.698;19.050;2024-01-30T14:24:58;6.14;62.60
64937;SHT30;51452;47.698;19.050;2024-01-30T14:27:24;6.16;62.38
64937;SHT30;51452;47.698;19.050;2024-01-30T14:29:49;6.16;62.13
64937;SHT30;51452;47.698;19.050;2024-01-30T14:32:15;6.13;62.25
64937;SHT30;51452;47.698;19.050;2024-01-30T14:34:40;6.10;62.05
64937;SHT30;51452;47.698;19.050;2024-01-30T14:37:07;6.07;61.57
64937;SHT30;51452;47.698;19.050;2024-01-30T14:39:35;6.07;60.71
64937;SHT30;51452;47.698;19.050;2024-01-30T14:42:13;6.06;59.45
64937;SHT30;51452;47.698;19.050;2024-01-30T14:44:38;6.00;59.30
64937;SHT30;51452;47.698;19.050;2024-01-30T14:47:05;6.04;58.82
64937;SHT30;51452;47.698;19.050;2024-01-30T14:49:30;6.01;58.91
64937;SHT30;51452;47.698;19.050;2024-01-30T14:51:55;5.93;58.66
64937;SHT30;51452;47.698;19.050;2024-01-30T14:54:21;5.99;57.92
64937;SHT30;51452;47.698;19.050;2024-01-30T14:56:46;6.00;57.79
64937;SHT30;51452;47.698;19.050;2024-01-30T14:59:12;5.87;57.68
64937;SHT30;51452;47.698;19.050;2024-01-30T15:01:37;5.85;57.13
64937;SHT30;51452;47.698;19.050;2024-01-30T15:04:03;5.80;56.28
64937;SHT30;51452;47.698;19.050;2024-01-30T15:06:28;5.76;57.14
64937;SHT30;51452;47.698;19.050;2024-01-30T15:08:54;5.66;57.18
64937;SHT30;51452;47.698;19.050;2024-01-30T15:11:20;5.65;56.46
64937;SHT30;51452;47.698;19.050;2024-01-30T15:13:45;5.59;57.13
64937;SHT30;51452;47.698;19.050;2024-01-30T15:16:11;5.53;57.30
64937;SHT30;51452;47.698;19.050;2024-01-30T15:18:36;5.50;57.51
64937;SHT30;51452;47.698;19.050;2024-01-30T15:21:02;5.46;56.75
64937;SHT30;51452;47.698;19.050;2024-01-30T15:23:28;5.35;57.94
64937;SHT30;51452;47.698;19.050;2024-01-30T15:25:54;5.27;58.37